sensor_id;sensor_type;location;lat;lon;timestamp;pressure;altitude;pressure_sealevel;temperature;humidity
73821;BME280;62150;43.582;1.456;2023-04-24T05:26:50;100029.84;;;15.49;100.00
73821;BME280;62150;43.582;1.456;2023-04-24T05:29:18;100046.22;;;15.21;100.00
73821;BME280;62150;43.582;1.456;2023-04-24T05:31:46;100043.53;;;15.51;100.00
73821;BME280;62150;43.582;1.456;2023-04-24T05:34:13;100047.03;;;15.92;100.00
73821;BME280;62150;43.582;1.456;2023-04-24T05:36:42;100051.31;;;15.65;100.00
73821;BME280;62150;43.582;1.456;2023-04-24T05:39:10;100056.69;;;15.62;100.00
73821;BME280;62150;43.582;1.456;2023-04-24T05:41:38;100048.44;;;15.55;100.00
73821;BME280;62150;43.582;1.456;2023-04-24T05:44:07;100054.72;;;15.23;100.00
73821;BME280;62150;43.582;1.456;2023-04-24T05:46:34;100060.19;;;15.61;100.00
73821;BME280;62150;43.582;1.456;2023-04-24T05:49:02;100052.78;;;15.83;100.00
73821;BME280;62150;43.582;1.456;2023-04-24T05:51:30;100065.31;;;16.03;100.00
73821;BME280;62150;43.582;1.456;2023-04-24T05:53:57;100062.41;;;15.81;100.00
73821;BME280;62150;43.582;1.456;2023-04-24T05:56:25;100069.16;;;16.25;100.00
73821;BME280;62150;43.582;1.456;2023-04-24T05:58:52;100071.94;;;15.81;100.00
73821;BME280;62150;43.582;1.456;2023-04-24T06:01:21;100074.44;;;16.23;100.00
73821;BME280;62150;43.582;1.456;2023-04-24T06:03:49;100071.69;;;16.39;100.00
73821;BME280;62150;43.582;1.456;2023-04-24T06:06:17;100078.50;;;16.54;100.00
73821;BME280;62150;43.582;1.456;2023-04-24T06:08:45;100073.69;;;16.48;100.00
73821;BME280;62150;43.582;1.456;2023-04-24T06:11:12;100074.97;;;16.28;100.00
73821;BME280;62150;43.582;1.456;2023-04-24T06:13:40;100070.59;;;16.29;100.00
73821;BME280;62150;43.582;1.456;2023-04-24T06:16:07;100071.94;;;17.01;100.00
73821;BME280;62150;43.582;1.456;2023-04-24T06:18:36;100073.97;;;16.70;100.00
73821;BME280;62150;43.582;1.456;2023-04-24T06:21:04;100082.44;;;16.60;100.00
73821;BME280;62150;43.582;1.456;2023-04-24T06:23:32;100079.28;;;16.42;100.00
73821;BME280;62150;43.582;1.456;2023-04-24T06:26:00;100082.56;;;16.98;100.00
73821;BME280;62150;43.582;1.456;2023-04-24T06:28:28;100080.72;;;17.25;100.00
73821;BME280;62150;43.582;1.456;2023-04-24T06:30:56;100101.16;;;16.65;100.00
73821;BME280;62150;43.582;1.456;2023-04-24T06:33:23;100094.53;;;16.47;100.00
73821;BME280;62150;43.582;1.456;2023-04-24T06:35:52;100097.09;;;17.13;100.00
73821;BME280;62150;43.582;1.456;2023-04-24T06:38:19;100103.16;;;16.20;100.00
73821;BME280;62150;43.582;1.456;2023-04-24T06:40:47;100109.22;;;16.60;100.00
73821;BME280;62150;43.582;1.456;2023-04-24T06:43:14;100106.50;;;16.35;100.00
73821;BME280;62150;43.582;1.456;2023-04-24T06:45:42;100104.72;;;16.23;100.00
73821;BME280;62150;43.582;1.456;2023-04-24T06:48:11;100120.09;;;16.12;100.00
73821;BME280;62150;43.582;1.456;2023-04-24T06:50:38;100124.19;;;17.09;100.00
73821;BME280;62150;43.582;1.456;2023-04-24T06:53:07;100123.28;;;16.29;100.00
73821;BME280;62150;43.582;1.456;2023-04-24T06:55:37;100118.69;;;16.20;100.00
73821;BME280;62150;43.582;1.456;2023-04-24T06:58:04;100120.25;;;16.23;100.00
73821;BME280;62150;43.582;1.456;2023-04-24T07:00:32;100131.63;;;16.61;100.00
73821;BME280;62150;43.582;1.456;2023-04-24T07:02:59;100126.41;;;16.07;100.00
73821;BME280;62150;43.582;1.456;2023-04-24T07:05:27;100129.31;;;17.49;100.00
73821;BME280;62150;43.582;1.456;2023-04-24T07:07:55;100136.16;;;16.31;100.00
73821;BME280;62150;43.582;1.456;2023-04-24T07:10:25;100133.84;;;16.94;100.00
73821;BME280;62150;43.582;1.456;2023-04-24T07:12:54;100135.25;;;17.25;100.00
73821;BME280;62150;43.582;1.456;2023-04-24T07:15:22;100134.56;;;16.96;100.00
73821;BME280;62150;43.582;1.456;2023-04-24T07:17:50;100132.06;;;16.95;100.00
73821;BME280;62150;43.582;1.456;2023-04-24T07:20:17;100139.19;;;16.79;100.00
73821;BME280;62150;43.582;1.456;2023-04-24T07:22:45;100144.97;;;16.69;100.00
73821;BME280;62150;43.582;1.456;2023-04-24T07:25:14;100145.91;;;17.08;100.00
73821;BME280;62150;43.582;1.456;2023-04-24T07:27:43;100138.94;;;16.69;100.00
73821;BME280;62150;43.582;1.456;2023-04-24T07:30:11;100152.38;;;16.61;100.00
73821;BME280;62150;43.582;1.456;2023-04-24T07:32:39;100142.59;;;16.52;100.00
73821;BME280;62150;43.582;1.456;2023-04-24T07:35:07;100150.88;;;16.71;100.00
73821;BME280;62150;43.582;1.456;2023-04-24T07:37:35;100156.94;;;16.58;100.00
73821;BME280;62150;43.582;1.456;2023-04-24T07:40:03;100151.84;;;16.56;100.00
73821;BME280;62150;43.582;1.456;2023-04-24T07:42:31;100147.31;;;16.46;100.00
73821;BME280;62150;43.582;1.456;2023-04-24T07:45:02;100141.28;;;16.99;100.00
73821;BME280;62150;43.582;1.456;2023-04-24T07:47:29;100143.72;;;16.48;100.00
73821;BME280;62150;43.582;1.456;2023-04-24T07:49:57;100143.66;;;17.29;100.00
73821;BME280;62150;43.582;1.456;2023-04-24T07:52:25;100146.78;;;17.47;100.00
73821;BME280;62150;43.582;1.456;2023-04-24T07:54:52;100147.50;;;17.49;100.00
73821;BME280;62150;43.582;1.456;2023-04-24T07:57:24;100145.75;;;17.62;100.00
73821;BME280;62150;43.582;1.456;2023-04-24T07:59:52;100129.13;;;17.90;100.00
73821;BME280;62150;43.582;1.456;2023-04-24T08:02:21;100143.88;;;17.26;100.00
73821;BME280;62150;43.582;1.456;2023-04-24T08:04:52;100142.09;;;17.39;100.00
73821;BME280;62150;43.582;1.456;2023-04-24T08:07:20;100148.66;;;17.57;100.00
73821;BME280;62150;43.582;1.456;2023-04-24T08:09:48;100146.50;;;16.99;100.00
73821;BME280;62150;43.582;1.456;2023-04-24T08:12:16;100134.63;;;18.58;100.00
73821;BME280;62150;43.582;1.456;2023-04-24T08:14:43;100148.59;;;16.94;100.00
73821;BME280;62150;43.582;1.456;2023-04-24T08:17:11;100129.94;;;18.87;100.00
73821;BME280;62150;43.582;1.456;2023-04-24T08:19:40;100133.69;;;18.35;100.00
73821;BME280;62150;43.582;1.456;2023-04-24T08:22:13;100131.63;;;18.64;100.00
73821;BME280;62150;43.582;1.456;2023-04-24T08:24:41;100130.78;;;17.91;100.00
73821;BME280;62150;43.582;1.456;2023-04-24T08:27:09;100146.53;;;17.12;100.00
73821;BME280;62150;43.582;1.456;2023-04-24T08:29:37;100142.69;;;17.17;100.00
73821;BME280;62150;43.582;1.456;2023-04-24T08:32:05;100132.34;;;18.30;100.00
73821;BME280;62150;43.582;1.456;2023-04-24T08:34:32;100138.25;;;17.19;100.00
73821;BME280;62150;43.582;1.456;2023-04-24T08:37:02;100142.03;;;17.66;100.00
73821;BME280;62150;43.582;1.456;2023-04-24T08:39:29;100123.97;;;19.20;100.00
73821;BME280;62150;43.582;1.456;2023-04-24T08:42:07;100124.69;;;18.03;100.00
73821;BME280;62150;43.582;1.456;2023-04-24T08:44:36;100120.38;;;18.99;100.00
73821;BME280;62150;43.582;1.456;2023-04-24T08:47:05;100112.00;;;19.64;100.00
73821;BME280;62150;43.582;1.456;2023-04-24T08:49:33;100119.69;;;19.08;100.00
73821;BME280;62150;43.582;1.456;2023-04-24T08:52:05;100120.44;;;18.86;100.00
73821;BME280;62150;43.582;1.456;2023-04-24T08:54:34;100127.16;;;18.78;100.00
73821;BME280;62150;43.582;1.456;2023-04-24T08:57:03;100125.66;;;20.33;100.00
73821;BME280;62150;43.582;1.456;2023-04-24T08:59:32;100125.88;;;19.18;100.00
73821;BME280;62150;43.582;1.456;2023-04-24T09:02:00;100127.91;;;18.43;100.00
73821;BME280;62150;43.582;1.456;2023-04-24T09:04:29;100123.31;;;20.19;100.00
73821;BME280;62150;43.582;1.456;2023-04-24T09:06:58;100125.66;;;18.86;100.00
73821;BME280;62150;43.582;1.456;2023-04-24T09:09:30;100127.09;;;20.26;100.00
73821;BME280;62150;43.582;1.456;2023-04-24T09:12:00;100113.03;;;20.06;100.00
73821;BME280;62150;43.582;1.456;2023-04-24T09:14:29;100125.59;;;18.51;100.00
73821;BME280;62150;43.582;1.456;2023-04-24T09:16:58;100114.72;;;19.05;100.00
73821;BME280;62150;43.582;1.456;2023-04-24T09:19:25;100116.47;;;18.46;100.00
73821;BME280;62150;43.582;1.456;2023-04-24T09:21:53;100112.16;;;19.27;100.00
73821;BME280;62150;43.582;1.456;2023-04-24T09:24:30;100113.41;;;19.90;100.00
73821;BME280;62150;43.582;1.456;2023-04-24T09:26:58;100117.56;;;18.30;100.00
73821;BME280;62150;43.582;1.456;2023-04-24T09:29:27;100114.47;;;18.49;100.00
73821;BME280;62150;43.582;1.456;2023-04-24T09:31:55;100116.91;;;19.33;100.00
73821;BME280;62150;43.582;1.456;2023-04-24T09:34:24;100118.56;;;19.46;100.00
73821;BME280;62150;43.582;1.456;2023-04-24T09:36:52;100115.94;;;19.23;100.00
73821;BME280;62150;43.582;1.456;2023-04-24T09:39:20;100117.50;;;18.91;100.00
73821;BME280;62150;43.582;1.456;2023-04-24T09:41:50;100120.84;;;18.93;100.00
73821;BME280;62150;43.582;1.456;2023-04-24T09:44:19;100113.78;;;19.74;100.00
73821;BME280;62150;43.582;1.456;2023-04-24T09:46:50;100113.63;;;19.98;100.00
73821;BME280;62150;43.582;1.456;2023-04-24T09:49:23;100114.06;;;20.26;100.00
73821;BME280;62150;43.582;1.456;2023-04-24T09:51:52;100116.97;;;19.56;100.00
73821;BME280;62150;43.582;1.456;2023-04-24T09:54:21;100120.06;;;19.72;100.00
73821;BME280;62150;43.582;1.456;2023-04-24T09:56:51;100121.19;;;20.13;100.00
73821;BME280;62150;43.582;1.456;2023-04-24T09:59:19;100121.66;;;20.93;100.00
73821;BME280;62150;43.582;1.456;2023-04-24T10:01:47;100112.91;;;20.07;100.00
73821;BME280;62150;43.582;1.456;2023-04-24T10:04:18;100120.50;;;19.08;100.00
73821;BME280;62150;43.582;1.456;2023-04-24T10:06:47;100108.59;;;20.18;100.00
73821;BME280;62150;43.582;1.456;2023-04-24T10:09:15;100118.31;;;19.26;100.00
73821;BME280;62150;43.582;1.456;2023-04-24T10:11:43;100123.34;;;20.07;100.00
73821;BME280;62150;43.582;1.456;2023-04-24T10:14:16;100121.16;;;20.99;100.00
73821;BME280;62150;43.582;1.456;2023-04-24T10:16:44;100114.00;;;20.48;100.00
73821;BME280;62150;43.582;1.456;2023-04-24T10:19:13;100124.44;;;20.59;100.00
73821;BME280;62150;43.582;1.456;2023-04-24T10:21:41;100122.88;;;20.89;100.00
73821;BME280;62150;43.582;1.456;2023-04-24T10:24:13;100111.91;;;20.31;100.00
73821;BME280;62150;43.582;1.456;2023-04-24T10:26:42;100112.69;;;19.55;100.00
73821;BME280;62150;43.582;1.456;2023-04-24T10:29:11;100111.03;;;19.76;100.00
73821;BME280;62150;43.582;1.456;2023-04-24T10:31:40;100107.56;;;20.63;100.00
73821;BME280;62150;43.582;1.456;2023-04-24T10:34:09;100098.25;;;21.02;97.75
73821;BME280;62150;43.582;1.456;2023-04-24T10:36:41;100088.84;;;22.22;89.48
73821;BME280;62150;43.582;1.456;2023-04-24T10:39:12;100089.84;;;22.59;89.41
73821;BME280;62150;43.582;1.456;2023-04-24T10:41:41;100095.47;;;20.62;94.38
73821;BME280;62150;43.582;1.456;2023-04-24T10:44:10;100084.91;;;20.85;98.17
73821;BME280;62150;43.582;1.456;2023-04-24T10:46:39;100085.00;;;20.30;93.60
73821;BME280;62150;43.582;1.456;2023-04-24T10:49:09;100097.38;;;20.06;98.41
73821;BME280;62150;43.582;1.456;2023-04-24T10:51:45;100086.97;;;21.44;91.63
73821;BME280;62150;43.582;1.456;2023-04-24T10:54:23;100079.94;;;21.44;87.99
73821;BME280;62150;43.582;1.456;2023-04-24T10:56:51;100084.88;;;21.78;90.23
73821;BME280;62150;43.582;1.456;2023-04-24T10:59:25;100089.63;;;20.70;98.61
73821;BME280;62150;43.582;1.456;2023-04-24T11:01:55;100094.16;;;21.10;94.96
73821;BME280;62150;43.582;1.456;2023-04-24T11:04:30;100088.44;;;21.36;93.09
73821;BME280;62150;43.582;1.456;2023-04-24T11:06:58;100087.03;;;20.38;96.44
73821;BME280;62150;43.582;1.456;2023-04-24T11:09:27;100086.22;;;20.58;95.96
73821;BME280;62150;43.582;1.456;2023-04-24T11:12:04;100091.63;;;20.98;95.29
73821;BME280;62150;43.582;1.456;2023-04-24T11:15:01;100090.41;;;21.02;95.65
73821;BME280;62150;43.582;1.456;2023-04-24T11:17:33;100099.41;;;20.57;99.49
73821;BME280;62150;43.582;1.456;2023-04-24T11:20:04;100095.94;;;21.09;99.11
73821;BME280;62150;43.582;1.456;2023-04-24T11:22:34;100093.06;;;20.91;95.22
73821;BME280;62150;43.582;1.456;2023-04-24T11:25:02;100084.75;;;21.49;93.00
73821;BME280;62150;43.582;1.456;2023-04-24T11:27:31;100091.63;;;20.34;99.64
73821;BME280;62150;43.582;1.456;2023-04-24T11:30:00;100087.47;;;20.96;94.19
73821;BME280;62150;43.582;1.456;2023-04-24T11:32:34;100083.44;;;20.71;98.20
73821;BME280;62150;43.582;1.456;2023-04-24T11:35:03;100076.03;;;21.18;95.09
73821;BME280;62150;43.582;1.456;2023-04-24T11:37:35;100076.78;;;20.46;98.62
73821;BME280;62150;43.582;1.456;2023-04-24T11:40:05;100081.56;;;20.30;99.85
73821;BME280;62150;43.582;1.456;2023-04-24T11:42:37;100062.41;;;21.65;90.86
73821;BME280;62150;43.582;1.456;2023-04-24T11:45:09;100070.44;;;21.83;87.94
73821;BME280;62150;43.582;1.456;2023-04-24T11:47:39;100075.50;;;21.35;92.84
73821;BME280;62150;43.582;1.456;2023-04-24T11:50:09;100073.91;;;21.23;93.68
73821;BME280;62150;43.582;1.456;2023-04-24T11:52:38;100055.84;;;22.79;81.02
73821;BME280;62150;43.582;1.456;2023-04-24T11:55:08;100065.19;;;22.33;84.01
73821;BME280;62150;43.582;1.456;2023-04-24T11:57:36;100057.44;;;22.99;82.29
73821;BME280;62150;43.582;1.456;2023-04-24T12:00:05;100057.63;;;22.49;78.84
73821;BME280;62150;43.582;1.456;2023-04-24T12:02:34;100064.00;;;21.57;90.50
73821;BME280;62150;43.582;1.456;2023-04-24T12:05:03;100066.97;;;22.61;83.39
73821;BME280;62150;43.582;1.456;2023-04-24T12:07:41;100064.63;;;22.20;84.98
73821;BME280;62150;43.582;1.456;2023-04-24T12:10:09;100065.78;;;21.96;86.62
73821;BME280;62150;43.582;1.456;2023-04-24T12:12:37;100057.44;;;22.99;80.55
73821;BME280;62150;43.582;1.456;2023-04-24T12:15:08;100061.34;;;23.96;73.33
73821;BME280;62150;43.582;1.456;2023-04-24T12:17:36;100053.09;;;22.80;77.40
73821;BME280;62150;43.582;1.456;2023-04-24T12:20:10;100059.56;;;21.88;84.19
73821;BME280;62150;43.582;1.456;2023-04-24T12:22:45;100052.97;;;21.44;91.90
73821;BME280;62150;43.582;1.456;2023-04-24T12:25:14;100045.94;;;21.84;93.12
73821;BME280;62150;43.582;1.456;2023-04-24T12:27:42;100047.63;;;21.45;94.91
73821;BME280;62150;43.582;1.456;2023-04-24T12:30:12;100039.28;;;22.11;95.15
73821;BME280;62150;43.582;1.456;2023-04-24T12:32:45;100050.72;;;22.67;86.39
73821;BME280;62150;43.582;1.456;2023-04-24T12:35:18;100053.78;;;22.82;83.13
73821;BME280;62150;43.582;1.456;2023-04-24T12:37:46;100054.56;;;22.54;87.34
73821;BME280;62150;43.582;1.456;2023-04-24T12:40:15;100053.50;;;21.78;86.84
73821;BME280;62150;43.582;1.456;2023-04-24T12:42:44;100051.69;;;22.86;83.66
73821;BME280;62150;43.582;1.456;2023-04-24T12:45:13;100046.69;;;23.76;77.22
73821;BME280;62150;43.582;1.456;2023-04-24T12:47:41;100047.47;;;23.86;72.68
73821;BME280;62150;43.582;1.456;2023-04-24T12:50:11;100043.34;;;23.19;79.45
73821;BME280;62150;43.582;1.456;2023-04-24T12:52:41;100054.66;;;23.84;77.14
73821;BME280;62150;43.582;1.456;2023-04-24T12:55:09;100034.13;;;21.99;85.28
73821;BME280;62150;43.582;1.456;2023-04-24T12:57:39;100039.84;;;22.82;83.29
73821;BME280;62150;43.582;1.456;2023-04-24T13:00:08;100041.28;;;21.97;88.26
73821;BME280;62150;43.582;1.456;2023-04-24T13:02:36;100023.78;;;23.96;76.05
73821;BME280;62150;43.582;1.456;2023-04-24T13:05:04;100023.84;;;22.56;79.80
73821;BME280;62150;43.582;1.456;2023-04-24T13:07:33;100024.22;;;23.73;75.74
73821;BME280;62150;43.582;1.456;2023-04-24T13:10:03;100020.28;;;23.60;75.27
73821;BME280;62150;43.582;1.456;2023-04-24T13:12:30;100017.69;;;23.78;72.99
73821;BME280;62150;43.582;1.456;2023-04-24T13:14:58;100011.22;;;23.08;79.37
73821;BME280;62150;43.582;1.456;2023-04-24T13:17:26;100017.22;;;23.64;75.42
73821;BME280;62150;43.582;1.456;2023-04-24T13:19:55;100017.25;;;22.81;76.79
73821;BME280;62150;43.582;1.456;2023-04-24T13:22:23;100013.22;;;23.23;75.46
73821;BME280;62150;43.582;1.456;2023-04-24T13:24:51;100005.41;;;23.78;68.91
73821;BME280;62150;43.582;1.456;2023-04-24T13:27:20;100008.44;;;22.14;85.13
73821;BME280;62150;43.582;1.456;2023-04-24T13:29:47;100009.47;;;22.89;79.51
73821;BME280;62150;43.582;1.456;2023-04-24T13:32:16;99993.16;;;23.14;79.60
73821;BME280;62150;43.582;1.456;2023-04-24T13:34:44;100004.88;;;22.15;86.00
73821;BME280;62150;43.582;1.456;2023-04-24T13:37:12;99994.88;;;23.23;78.38
73821;BME280;62150;43.582;1.456;2023-04-24T13:39:39;99997.50;;;22.77;78.91
73821;BME280;62150;43.582;1.456;2023-04-24T13:42:07;99984.09;;;22.89;84.32
73821;BME280;62150;43.582;1.456;2023-04-24T13:44:36;99977.97;;;23.72;79.51
73821;BME280;62150;43.582;1.456;2023-04-24T13:47:04;99970.34;;;24.32;74.26
73821;BME280;62150;43.582;1.456;2023-04-24T13:49:31;99979.75;;;23.45;71.80
73821;BME280;62150;43.582;1.456;2023-04-24T13:51:59;99979.41;;;24.02;67.83
73821;BME280;62150;43.582;1.456;2023-04-24T13:54:26;99967.50;;;23.08;80.58
73821;BME280;62150;43.582;1.456;2023-04-24T13:56:55;99968.53;;;23.80;70.62
73821;BME280;62150;43.582;1.456;2023-04-24T13:59:23;99959.75;;;24.24;67.90
73821;BME280;62150;43.582;1.456;2023-04-24T14:01:52;99964.22;;;23.61;73.39
73821;BME280;62150;43.582;1.456;2023-04-24T14:04:20;99962.06;;;23.56;73.27
73821;BME280;62150;43.582;1.456;2023-04-24T14:06:47;99969.13;;;23.73;71.90
73821;BME280;62150;43.582;1.456;2023-04-24T14:09:15;99967.38;;;23.37;73.85
73821;BME280;62150;43.582;1.456;2023-04-24T14:11:42;99957.47;;;23.31;76.72
73821;BME280;62150;43.582;1.456;2023-04-24T14:14:10;99952.56;;;23.18;75.56
73821;BME280;62150;43.582;1.456;2023-04-24T14:16:37;99956.31;;;24.06;71.13
73821;BME280;62150;43.582;1.456;2023-04-24T14:19:07;99953.25;;;23.20;78.05
73821;BME280;62150;43.582;1.456;2023-04-24T14:21:34;99944.91;;;23.07;76.82
73821;BME280;62150;43.582;1.456;2023-04-24T14:24:02;99952.28;;;23.49;74.88
73821;BME280;62150;43.582;1.456;2023-04-24T14:26:30;99949.69;;;22.55;83.02
73821;BME280;62150;43.582;1.456;2023-04-24T14:28:57;99933.72;;;23.32;79.07
73821;BME280;62150;43.582;1.456;2023-04-24T14:31:25;99920.59;;;23.60;70.53
73821;BME280;62150;43.582;1.456;2023-04-24T14:33:53;99911.22;;;23.12;76.08
73821;BME280;62150;43.582;1.456;2023-04-24T14:36:22;99904.88;;;23.15;76.02
73821;BME280;62150;43.582;1.456;2023-04-24T14:38:49;99917.22;;;23.50;66.67
73821;BME280;62150;43.582;1.456;2023-04-24T14:41:17;99909.88;;;23.26;74.69
73821;BME280;62150;43.582;1.456;2023-04-24T14:43:45;99916.22;;;22.59;82.78
73821;BME280;62150;43.582;1.456;2023-04-24T14:46:12;99911.22;;;22.09;85.30
73821;BME280;62150;43.582;1.456;2023-04-24T14:48:40;99907.88;;;21.97;86.19
73821;BME280;62150;43.582;1.456;2023-04-24T14:51:07;99900.13;;;22.44;88.56
73821;BME280;62150;43.582;1.456;2023-04-24T14:53:36;99905.78;;;22.96;84.03
73821;BME280;62150;43.582;1.456;2023-04-24T14:56:04;99897.44;;;22.63;86.91
73821;BME280;62150;43.582;1.456;2023-04-24T14:58:31;99897.66;;;22.52;87.35
73821;BME280;62150;43.582;1.456;2023-04-24T15:00:59;99892.72;;;23.14;82.97
73821;BME280;62150;43.582;1.456;2023-04-24T15:03:26;99899.63;;;22.21;88.56
73821;BME280;62150;43.582;1.456;2023-04-24T15:05:55;99896.16;;;22.21;86.39
73821;BME280;62150;43.582;1.456;2023-04-24T15:08:22;99888.03;;;22.43;87.79
73821;BME280;62150;43.582;1.456;2023-04-24T15:10:51;99881.06;;;23.71;77.73
73821;BME280;62150;43.582;1.456;2023-04-24T15:13:19;99891.91;;;22.20;89.41
73821;BME280;62150;43.582;1.456;2023-04-24T15:15:47;99882.50;;;23.20;86.59
73821;BME280;62150;43.582;1.456;2023-04-24T15:18:14;99889.03;;;22.69;85.17
73821;BME280;62150;43.582;1.456;2023-04-24T15:20:42;99884.47;;;22.81;88.92
73821;BME280;62150;43.582;1.456;2023-04-24T15:23:09;99886.09;;;23.37;84.04
73821;BME280;62150;43.582;1.456;2023-04-24T15:25:37;99883.59;;;23.63;73.02
73821;BME280;62150;43.582;1.456;2023-04-24T15:28:06;99874.56;;;24.70;70.10
73821;BME280;62150;43.582;1.456;2023-04-24T15:30:34;99871.09;;;25.62;59.90
73821;BME280;62150;43.582;1.456;2023-04-24T15:33:01;99870.22;;;24.87;66.56
73821;BME280;62150;43.582;1.456;2023-04-24T15:35:29;99873.38;;;24.65;67.03
73821;BME280;62150;43.582;1.456;2023-04-24T15:37:56;99880.84;;;24.78;64.30
73821;BME280;62150;43.582;1.456;2023-04-24T15:40:24;99875.41;;;24.01;67.85
73821;BME280;62150;43.582;1.456;2023-04-24T15:42:52;99874.09;;;23.34;79.57
73821;BME280;62150;43.582;1.456;2023-04-24T15:45:22;99868.63;;;23.73;75.28
73821;BME280;62150;43.582;1.456;2023-04-24T15:47:50;99871.66;;;23.51;75.50
73821;BME280;62150;43.582;1.456;2023-04-24T15:50:18;99867.72;;;23.82;74.89
73821;BME280;62150;43.582;1.456;2023-04-24T15:52:47;99880.66;;;23.48;77.58
73821;BME280;62150;43.582;1.456;2023-04-24T15:55:15;99884.78;;;23.23;79.70
73821;BME280;62150;43.582;1.456;2023-04-24T15:57:42;99878.09;;;22.37;84.71
73821;BME280;62150;43.582;1.456;2023-04-24T16:00:11;99882.16;;;22.78;76.97
73821;BME280;62150;43.582;1.456;2023-04-24T16:02:40;99888.22;;;22.59;81.14
73821;BME280;62150;43.582;1.456;2023-04-24T16:05:08;99892.63;;;22.59;84.27
73821;BME280;62150;43.582;1.456;2023-04-24T16:07:37;99896.81;;;23.44;81.01
73821;BME280;62150;43.582;1.456;2023-04-24T16:10:06;99886.66;;;22.39;85.85
73821;BME280;62150;43.582;1.456;2023-04-24T16:12:34;99893.63;;;23.50;78.70
73821;BME280;62150;43.582;1.456;2023-04-24T16:15:01;99900.63;;;22.01;89.53
73821;BME280;62150;43.582;1.456;2023-04-24T16:17:29;99902.00;;;22.81;84.64
73821;BME280;62150;43.582;1.456;2023-04-24T16:19:58;99893.06;;;23.01;83.95
73821;BME280;62150;43.582;1.456;2023-04-24T16:22:25;99900.97;;;23.64;80.51
73821;BME280;62150;43.582;1.456;2023-04-24T16:24:53;99889.78;;;22.89;86.67
73821;BME280;62150;43.582;1.456;2023-04-24T16:27:22;99889.28;;;22.86;89.32
73821;BME280;62150;43.582;1.456;2023-04-24T16:29:49;99895.09;;;22.14;94.22
73821;BME280;62150;43.582;1.456;2023-04-24T16:32:17;99900.19;;;22.71;92.07
73821;BME280;62150;43.582;1.456;2023-04-24T16:34:44;99889.00;;;23.16;88.66
73821;BME280;62150;43.582;1.456;2023-04-24T16:37:13;99894.09;;;23.18;88.35
73821;BME280;62150;43.582;1.456;2023-04-24T16:39:41;99903.78;;;22.80;90.81
73821;BME280;62150;43.582;1.456;2023-04-24T16:42:10;99908.44;;;22.77;93.26
73821;BME280;62150;43.582;1.456;2023-04-24T16:44:38;99908.47;;;23.14;90.63
73821;BME280;62150;43.582;1.456;2023-04-24T16:47:06;99912.28;;;21.87;98.96
73821;BME280;62150;43.582;1.456;2023-04-24T16:49:33;99902.75;;;22.44;96.48
73821;BME280;62150;43.582;1.456;2023-04-24T16:52:01;99910.22;;;22.00;98.76
73821;BME280;62150;43.582;1.456;2023-04-24T16:54:30;99904.88;;;23.15;92.27
73821;BME280;62150;43.582;1.456;2023-04-24T16:56:59;99908.69;;;22.46;96.94
73821;BME280;62150;43.582;1.456;2023-04-24T16:59:27;99906.09;;;22.27;96.01
73821;BME280;62150;43.582;1.456;2023-04-24T17:01:55;99908.69;;;21.88;100.00
73821;BME280;62150;43.582;1.456;2023-04-24T17:04:23;99906.41;;;22.61;94.15
73821;BME280;62150;43.582;1.456;2023-04-24T17:06:51;99907.50;;;23.32;90.43
73821;BME280;62150;43.582;1.456;2023-04-24T17:09:19;99901.16;;;23.08;94.26
73821;BME280;62150;43.582;1.456;2023-04-24T17:11:48;99900.06;;;22.17;100.00
73821;BME280;62150;43.582;1.456;2023-04-24T17:14:15;99893.84;;;22.74;97.20
73821;BME280;62150;43.582;1.456;2023-04-24T17:16:43;99892.38;;;23.54;90.13
73821;BME280;62150;43.582;1.456;2023-04-24T17:19:11;99892.56;;;23.43;92.19
73821;BME280;62150;43.582;1.456;2023-04-24T17:21:38;99895.09;;;23.34;91.93
73821;BME280;62150;43.582;1.456;2023-04-24T17:24:06;99892.22;;;22.07;99.32
73821;BME280;62150;43.582;1.456;2023-04-24T17:26:34;99904.72;;;23.16;94.97
73821;BME280;62150;43.582;1.456;2023-04-24T17:29:03;99896.56;;;22.45;94.83
73821;BME280;62150;43.582;1.456;2023-04-24T17:31:30;99900.56;;;22.30;96.83
73821;BME280;62150;43.582;1.456;2023-04-24T17:33:58;99898.06;;;22.48;94.41
73821;BME280;62150;43.582;1.456;2023-04-24T17:36:25;99913.53;;;22.22;92.23
73821;BME280;62150;43.582;1.456;2023-04-24T17:38:53;99911.31;;;21.69;94.14
73821;BME280;62150;43.582;1.456;2023-04-24T17:41:20;99911.56;;;21.16;93.39
73821;BME280;62150;43.582;1.456;2023-04-24T17:43:48;99912.47;;;21.26;93.81
73821;BME280;62150;43.582;1.456;2023-04-24T17:46:17;99906.22;;;21.67;92.02
73821;BME280;62150;43.582;1.456;2023-04-24T17:48:44;99909.34;;;21.52;92.62
73821;BME280;62150;43.582;1.456;2023-04-24T17:51:12;99920.94;;;21.59;92.60
73821;BME280;62150;43.582;1.456;2023-04-24T17:53:40;99922.00;;;21.37;94.00
73821;BME280;62150;43.582;1.456;2023-04-24T17:56:08;99912.28;;;21.78;89.91
73821;BME280;62150;43.582;1.456;2023-04-24T17:58:35;99915.56;;;21.89;89.42
73821;BME280;62150;43.582;1.456;2023-04-24T18:01:03;99920.38;;;21.46;92.06
73821;BME280;62150;43.582;1.456;2023-04-24T18:03:33;99930.94;;;21.04;93.61
73821;BME280;62150;43.582;1.456;2023-04-24T18:06:00;99918.22;;;20.59;94.87
73821;BME280;62150;43.582;1.456;2023-04-24T18:08:28;99914.97;;;20.97;91.38
73821;BME280;62150;43.582;1.456;2023-04-24T18:10:55;99920.28;;;21.76;88.10
73821;BME280;62150;43.582;1.456;2023-04-24T18:13:24;99913.97;;;22.08;85.04
73821;BME280;62150;43.582;1.456;2023-04-24T18:15:51;99918.53;;;20.66;94.62
73821;BME280;62150;43.582;1.456;2023-04-24T18:18:19;99911.28;;;21.50;92.39
73821;BME280;62150;43.582;1.456;2023-04-24T18:20:48;99907.19;;;20.77;94.47
73821;BME280;62150;43.582;1.456;2023-04-24T18:23:15;99916.28;;;21.13;94.85